createdAt,value
2018-10-02T00:03:11.868Z,14.03
2018-10-02T00:08:06.325Z,8.80
2018-10-02T00:13:06.032Z,9.53
2018-10-02T00:18:00.474Z,4.87
2018-10-02T00:22:55.559Z,5.40
2018-10-02T00:27:50.015Z,5.37
2018-10-02T00:32:44.437Z,8.83
2018-10-02T00:37:38.900Z,13.33
2018-10-02T00:42:33.347Z,10.80
2018-10-02T00:47:27.856Z,7.57
2018-10-02T00:52:22.328Z,6.07
2018-10-02T00:57:16.751Z,4.53
2018-10-02T01:02:11.195Z,7.00
2018-10-02T01:07:05.624Z,10.13
2018-10-02T01:12:00.026Z,9.13
2018-10-02T01:16:54.473Z,9.73
2018-10-02T01:21:48.897Z,10.57
2018-10-02T01:26:43.602Z,10.43
2018-10-02T01:31:38.107Z,11.27
2018-10-02T01:36:32.560Z,8.47
2018-10-02T01:41:27.006Z,9.93
2018-10-02T01:46:21.456Z,13.47
2018-10-02T01:51:15.931Z,17.10
2018-10-02T01:56:10.489Z,11.20
2018-10-02T02:01:04.912Z,12.27
2018-10-02T02:05:59.345Z,12.63
2018-10-02T02:10:53.769Z,10.30
2018-10-02T02:15:48.229Z,11.33
2018-10-02T02:20:42.654Z,10.03
2018-10-02T02:25:37.135Z,13.53
2018-10-02T02:30:31.588Z,14.30
2018-10-02T02:35:26.027Z,12.27
2018-10-02T02:40:20.508Z,8.93
2018-10-02T02:45:15.183Z,8.57
2018-10-02T02:50:14.969Z,6.70
2018-10-02T02:55:09.904Z,7.10
2018-10-02T03:00:04.836Z,10.30
2018-10-02T03:04:59.268Z,10.00
2018-10-02T03:09:53.706Z,9.50
2018-10-02T03:14:48.147Z,8.43
2018-10-02T03:19:42.556Z,10.10
2018-10-02T03:24:37.008Z,8.20
2018-10-02T03:29:31.439Z,7.47
2018-10-02T03:34:25.876Z,8.73
2018-10-02T03:39:20.324Z,9.97
2018-10-02T03:44:14.755Z,7.77
2018-10-02T03:49:09.179Z,6.67
2018-10-02T03:54:03.602Z,10.30
2018-10-02T03:58:58.031Z,6.27
2018-10-02T04:03:52.444Z,7.47
2018-10-02T04:08:46.904Z,7.73
2018-10-02T04:13:41.389Z,8.07
2018-10-02T04:18:36.278Z,11.80
2018-10-02T04:23:30.737Z,7.80
2018-10-02T04:28:25.232Z,5.47
2018-10-02T04:33:19.816Z,7.57
2018-10-02T04:38:21.127Z,7.03
2018-10-02T04:43:15.587Z,6.83
2018-10-02T04:48:10.111Z,6.30
2018-10-02T04:53:04.543Z,9.30
2018-10-02T04:57:58.961Z,8.37
2018-10-02T05:02:53.380Z,9.40
2018-10-02T05:07:47.808Z,11.83
2018-10-02T05:12:42.239Z,8.60
2018-10-02T05:17:36.792Z,9.30
2018-10-02T05:22:31.582Z,7.83
2018-10-02T05:27:26.083Z,8.27
2018-10-02T05:32:20.675Z,8.50
2018-10-02T05:37:15.116Z,10.90
2018-10-02T05:42:09.853Z,12.53
2018-10-02T05:47:04.289Z,11.97
2018-10-02T05:51:58.730Z,10.07
2018-10-02T05:56:53.183Z,9.23
2018-10-02T06:01:48.030Z,9.47
2018-10-02T06:06:42.513Z,9.53
2018-10-02T06:11:37.362Z,10.70
2018-10-02T06:16:31.809Z,10.30
2018-10-02T06:21:26.267Z,10.17
2018-10-02T06:26:20.732Z,9.63
2018-10-02T06:31:15.232Z,9.80
2018-10-02T06:36:09.879Z,10.10
2018-10-02T06:41:04.596Z,9.43
2018-10-02T06:45:59.135Z,10.33
2018-10-02T06:50:53.647Z,6.80
2018-10-02T06:55:48.254Z,5.13
2018-10-02T07:00:42.957Z,6.17
2018-10-02T07:05:37.661Z,7.13
2018-10-02T07:10:32.275Z,9.53
2018-10-02T07:15:26.724Z,4.97
2018-10-02T07:20:21.184Z,7.40
2018-10-02T07:25:15.814Z,8.27
2018-10-02T07:30:10.734Z,5.77
2018-10-02T07:35:05.484Z,8.17
2018-10-02T07:40:00.235Z,9.47
2018-10-02T07:44:54.715Z,8.40
2018-10-02T07:49:49.321Z,7.73
2018-10-02T07:54:43.824Z,7.50
2018-10-02T07:59:38.920Z,5.57
2018-10-02T08:04:33.517Z,10.47
2018-10-02T08:09:28.288Z,10.13
2018-10-02T08:14:22.838Z,6.53
2018-10-02T08:19:17.484Z,7.43
2018-10-02T08:24:12.109Z,8.80
2018-10-02T08:29:06.579Z,9.37
2018-10-02T08:34:01.179Z,8.13
2018-10-02T08:38:55.903Z,9.73
2018-10-02T08:43:50.563Z,7.67
2018-10-02T08:48:45.344Z,9.60
2018-10-02T08:53:40.075Z,4.43
2018-10-02T08:58:34.785Z,8.03
2018-10-02T09:03:29.250Z,6.77
2018-10-02T09:08:23.945Z,7.03
2018-10-02T09:13:18.778Z,9.77
2018-10-02T09:18:13.249Z,11.10
2018-10-02T09:23:07.720Z,7.30
2018-10-02T09:28:02.357Z,7.67
2018-10-02T09:33:02.463Z,7.03
2018-10-02T09:38:02.474Z,7.37
2018-10-02T09:43:02.250Z,7.40
2018-10-02T09:47:57.144Z,8.80
2018-10-02T09:52:52.151Z,7.17
2018-10-02T09:57:46.937Z,7.93
2018-10-02T10:02:41.760Z,4.77
2018-10-02T10:07:36.418Z,5.40
2018-10-02T10:12:30.917Z,6.30
2018-10-02T10:17:25.467Z,6.07
2018-10-02T10:22:20.745Z,5.30
2018-10-02T10:27:15.234Z,10.57
2018-10-02T10:32:10.046Z,5.77
2018-10-02T10:37:04.534Z,3.63
2018-10-02T10:41:59.244Z,4.53
2018-10-02T10:46:53.885Z,6.37
2018-10-02T10:51:48.472Z,6.30
2018-10-02T10:56:43.060Z,5.60
2018-10-02T11:01:37.584Z,6.80
2018-10-02T11:06:32.086Z,6.50
2018-10-02T11:11:26.703Z,5.77
2018-10-02T11:16:21.272Z,8.60
2018-10-02T11:21:15.724Z,7.30
2018-10-02T11:26:10.232Z,5.77
2018-10-02T11:31:04.881Z,7.17
2018-10-02T11:35:59.635Z,8.20
2018-10-02T11:40:54.130Z,5.37
2018-10-02T11:45:48.905Z,5.37
2018-10-02T11:50:43.831Z,4.07
2018-10-02T11:55:38.616Z,6.40
2018-10-02T12:00:34.037Z,5.70
2018-10-02T12:05:28.618Z,4.20
2018-10-02T12:10:23.116Z,5.03
2018-10-02T12:15:17.709Z,2.83
2018-10-02T12:20:12.494Z,2.00
2018-10-02T12:25:06.969Z,1.90
2018-10-02T12:30:02.311Z,2.17
2018-10-02T12:34:56.865Z,3.47
2018-10-02T12:39:51.322Z,3.43
2018-10-02T12:44:45.790Z,3.20
2018-10-02T12:49:40.360Z,2.50
2018-10-02T12:54:35.021Z,1.77
2018-10-02T12:59:29.526Z,2.57
2018-10-02T13:04:24.449Z,2.03
2018-10-02T13:09:18.911Z,2.43
2018-10-02T13:14:13.416Z,3.60
2018-10-02T13:19:07.927Z,3.30
2018-10-02T13:24:02.362Z,3.30
2018-10-02T13:28:56.816Z,2.33
2018-10-02T13:33:51.346Z,2.27
2018-10-02T13:38:47.048Z,2.77
2018-10-02T13:43:41.521Z,2.77
2018-10-02T13:48:36.570Z,3.63
2018-10-02T13:53:31.004Z,2.87
2018-10-02T13:58:25.810Z,1.90
2018-10-02T14:03:20.249Z,2.67
2018-10-02T14:08:14.815Z,2.80
2018-10-02T14:13:09.395Z,3.57
2018-10-02T14:18:04.394Z,3.73
2018-10-02T14:22:58.844Z,2.67
2018-10-02T14:27:53.336Z,3.07
2018-10-02T14:32:48.168Z,3.03
2018-10-02T14:37:42.642Z,4.73
2018-10-02T14:42:37.304Z,6.23
2018-10-02T14:47:31.897Z,4.97
2018-10-02T14:52:26.353Z,6.70
2018-10-02T14:57:20.992Z,6.33
2018-10-02T15:02:15.734Z,7.07
2018-10-02T15:07:10.563Z,7.40
2018-10-02T15:12:05.113Z,7.43
2018-10-02T15:16:59.945Z,7.43
2018-10-02T15:21:54.932Z,8.27
2018-10-02T15:26:49.426Z,9.03
2018-10-02T15:31:44.080Z,11.17
2018-10-02T15:36:39.071Z,12.17
2018-10-02T15:41:33.765Z,11.90
2018-10-02T15:46:28.451Z,11.77
2018-10-02T15:51:23.083Z,10.67
2018-10-02T15:56:17.544Z,8.93
2018-10-02T16:01:12.208Z,11.47
2018-10-02T16:06:06.693Z,12.93
2018-10-02T16:11:01.174Z,12.80
2018-10-02T16:15:55.820Z,11.77
2018-10-02T16:20:50.245Z,16.87
2018-10-02T16:25:45.041Z,13.87
2018-10-02T16:30:39.938Z,14.87
2018-10-02T16:35:34.716Z,15.47
2018-10-02T16:40:29.255Z,16.80
2018-10-02T16:45:23.795Z,16.83
2018-10-02T16:50:18.265Z,17.47
2018-10-02T16:55:12.927Z,14.53
2018-10-02T17:00:08.561Z,19.20
2018-10-02T17:05:03.106Z,11.07
2018-10-02T17:09:57.948Z,13.00
2018-10-02T17:14:54.622Z,14.97
2018-10-02T17:19:49.520Z,17.27
2018-10-02T17:24:44.107Z,20.53
2018-10-02T17:29:38.976Z,20.13
2018-10-02T17:34:33.468Z,20.90
2018-10-02T17:39:28.342Z,25.27
2018-10-02T17:44:23.132Z,22.60
2018-10-02T17:49:17.750Z,24.03
2018-10-02T17:54:12.640Z,20.40
2018-10-02T17:59:07.093Z,25.33
2018-10-02T18:04:03.086Z,22.23
2018-10-02T18:08:59.295Z,25.67
2018-10-02T18:13:56.974Z,23.20
2018-10-02T18:18:55.637Z,20.47
2018-10-02T18:23:50.212Z,30.20
2018-10-02T18:28:47.530Z,26.80
2018-10-02T18:33:44.700Z,28.67
2018-10-02T18:38:39.861Z,28.13
2018-10-02T18:43:34.519Z,26.90
2018-10-02T18:48:30.474Z,26.47
2018-10-02T18:53:26.300Z,25.47
2018-10-02T18:58:22.332Z,26.83
2018-10-02T19:03:19.078Z,19.93
2018-10-02T19:08:15.235Z,23.83
2018-10-02T19:13:10.750Z,22.13
2018-10-02T19:18:05.419Z,19.13
2018-10-02T19:23:00.361Z,22.87
2018-10-02T19:27:55.167Z,21.53
2018-10-02T19:32:51.158Z,21.73
2018-10-02T19:37:51.245Z,19.93
2018-10-02T19:42:45.961Z,17.63
2018-10-02T19:47:40.414Z,19.77
2018-10-02T19:52:34.973Z,19.87
2018-10-02T19:57:29.462Z,18.03
2018-10-02T20:02:23.908Z,20.63
2018-10-02T20:07:18.523Z,20.37
2018-10-02T20:12:12.924Z,19.77
2018-10-02T20:17:07.632Z,20.97
2018-10-02T20:22:02.110Z,22.80
2018-10-02T20:26:56.532Z,23.07
2018-10-02T20:31:53.047Z,22.43
2018-10-02T20:36:47.632Z,22.23
2018-10-02T20:41:43.636Z,23.43
2018-10-02T20:46:38.151Z,25.23
2018-10-02T20:51:32.923Z,26.73
2018-10-02T20:56:32.884Z,28.70
2018-10-02T21:01:29.472Z,29.77
2018-10-02T21:06:29.068Z,30.13
2018-10-02T21:11:26.478Z,28.30
2018-10-02T21:16:20.978Z,30.40
2018-10-02T21:21:22.846Z,30.67
2018-10-02T21:26:24.208Z,36.47
2018-10-02T21:31:24.093Z,30.90
2018-10-02T21:36:21.716Z,32.33
2018-10-02T21:41:20.405Z,31.20
2018-10-02T21:46:16.847Z,35.83
2018-10-02T21:51:14.422Z,37.90
2018-10-02T21:56:12.229Z,37.10
2018-10-02T22:01:09.996Z,36.67
2018-10-02T22:06:13.005Z,34.80
2018-10-02T22:16:40.985Z,34.10
2018-10-02T22:21:36.813Z,33.90
2018-10-02T22:26:32.959Z,32.80
2018-10-02T22:31:28.280Z,32.63
2018-10-02T22:36:25.899Z,35.13
2018-10-02T22:41:22.353Z,31.77
2018-10-02T22:46:16.953Z,28.70
2018-10-02T22:51:12.663Z,30.57
2018-10-02T22:56:08.686Z,30.93
2018-10-02T23:01:07.050Z,27.93
2018-10-02T23:06:03.066Z,30.60
2018-10-02T23:11:05.553Z,25.20
2018-10-02T23:16:17.525Z,26.13
2018-10-02T23:21:21.749Z,25.93
2018-10-02T23:26:45.781Z,23.47
2018-10-02T23:31:43.662Z,24.77
2018-10-02T23:36:55.077Z,23.17
2018-10-02T23:41:52.123Z,29.57
2018-10-02T23:46:49.661Z,23.40
2018-10-02T23:51:49.237Z,28.93
2018-10-02T23:56:47.446Z,32.40
